createdAt,value
2018-08-31T00:02:33.407Z,19.50
2018-08-31T00:05:56.597Z,14.50
2018-08-31T00:11:14.671Z,14.53
2018-08-31T00:13:43.923Z,12.13
2018-08-31T00:16:13.174Z,12.93
2018-08-31T00:18:42.397Z,13.60
2018-08-31T00:21:11.641Z,16.95
2018-08-31T00:23:57.850Z,13.50
2018-08-31T00:26:44.052Z,14.63
2018-08-31T00:29:44.422Z,13.13
2018-08-31T00:32:45.346Z,15.00
2018-08-31T00:37:41.167Z,14.60
2018-08-31T00:40:34.284Z,14.20
2018-08-31T00:45:32.282Z,16.10
2018-08-31T00:48:02.043Z,12.97
2018-08-31T00:50:31.547Z,14.50
2018-08-31T00:53:01.107Z,14.90
2018-08-31T00:55:30.503Z,14.80
2018-08-31T00:57:59.778Z,16.43
2018-08-31T01:00:29.086Z,16.77
2018-08-31T01:02:58.334Z,17.83
2018-08-31T01:05:27.562Z,19.87
2018-08-31T01:07:56.822Z,17.63
2018-08-31T01:10:26.224Z,20.30
2018-08-31T01:12:56.249Z,21.40
2018-08-31T01:15:25.486Z,21.50
2018-08-31T01:17:55.252Z,20.97
2018-08-31T01:20:24.482Z,22.87
2018-08-31T01:22:53.731Z,21.97
2018-08-31T01:25:23.127Z,21.67
2018-08-31T01:27:52.491Z,19.23
2018-08-31T01:30:21.735Z,21.60
2018-08-31T01:32:50.984Z,21.63
2018-08-31T01:35:20.250Z,23.40
2018-08-31T01:37:49.492Z,22.17
2018-08-31T01:40:18.769Z,20.57
2018-08-31T01:42:48.120Z,20.00
2018-08-31T01:45:17.390Z,20.27
2018-08-31T01:47:46.640Z,23.03
2018-08-31T01:50:15.959Z,18.10
2018-08-31T01:52:45.267Z,16.17
2018-08-31T01:55:14.439Z,19.63
2018-08-31T01:57:43.708Z,16.50
2018-08-31T02:00:12.947Z,20.07
2018-08-31T02:02:42.230Z,19.80
2018-08-31T02:05:12.735Z,20.77
2018-08-31T02:07:41.976Z,22.43
2018-08-31T02:10:11.227Z,21.40
2018-08-31T02:12:40.473Z,22.77
2018-08-31T02:15:09.744Z,18.77
2018-08-31T02:17:38.972Z,19.60
2018-08-31T02:20:08.246Z,23.60
2018-08-31T02:22:37.520Z,21.33
2018-08-31T02:25:06.789Z,30.57
2018-08-31T02:27:36.100Z,28.70
2018-08-31T02:30:05.455Z,26.83
2018-08-31T02:32:34.932Z,25.10
2018-08-31T02:35:04.175Z,25.33
2018-08-31T02:37:33.426Z,24.92
2018-08-31T02:40:02.661Z,24.73
2018-08-31T02:42:32.167Z,25.83
2018-08-31T02:45:01.423Z,27.60
2018-08-31T02:47:30.661Z,26.17
2018-08-31T02:49:59.931Z,22.17
2018-08-31T02:52:29.183Z,24.37
2018-08-31T02:54:58.399Z,26.67
2018-08-31T02:57:27.647Z,25.27
2018-08-31T02:59:56.879Z,27.30
2018-08-31T03:02:26.166Z,28.20
2018-08-31T03:04:55.407Z,30.23
2018-08-31T03:07:24.662Z,24.37
2018-08-31T03:09:53.907Z,24.37
2018-08-31T03:12:23.153Z,26.17
2018-08-31T03:14:52.392Z,23.67
2018-08-31T03:22:19.359Z,25.10
2018-08-31T03:24:48.587Z,25.20
2018-08-31T03:27:17.867Z,29.03
2018-08-31T03:29:47.115Z,29.92
2018-08-31T03:32:16.430Z,28.00
2018-08-31T03:34:45.675Z,26.40
2018-08-31T03:37:14.955Z,28.80
2018-08-31T03:39:44.190Z,31.50
2018-08-31T03:42:13.435Z,30.63
2018-08-31T03:44:42.746Z,25.53
2018-08-31T03:47:12.002Z,27.50
2018-08-31T03:49:41.336Z,28.63
2018-08-31T03:52:10.666Z,31.20
2018-08-31T03:54:39.939Z,26.30
2018-08-31T03:57:09.441Z,29.60
2018-08-31T03:59:38.683Z,23.73
2018-08-31T04:02:07.930Z,23.20
2018-08-31T04:04:37.172Z,20.83
2018-08-31T04:07:06.402Z,20.77
2018-08-31T04:09:35.676Z,23.92
2018-08-31T04:12:04.905Z,23.77
2018-08-31T04:14:34.170Z,27.93
2018-08-31T04:17:03.499Z,24.50
2018-08-31T04:19:32.750Z,24.17
2018-08-31T04:22:01.994Z,29.30
2018-08-31T04:24:31.230Z,37.23
2018-08-31T04:27:00.478Z,27.37
2018-08-31T04:29:29.790Z,28.17
2018-08-31T04:31:59.055Z,25.67
2018-08-31T04:34:28.323Z,27.67
2018-08-31T04:36:57.564Z,30.93
2018-08-31T04:39:26.811Z,32.53
2018-08-31T04:41:56.048Z,32.43
2018-08-31T04:44:25.323Z,35.80
2018-08-31T04:46:54.514Z,34.37
2018-08-31T04:49:23.768Z,32.53
2018-08-31T04:51:53.008Z,40.67
2018-08-31T04:54:22.238Z,46.50
2018-08-31T04:56:51.502Z,38.17
2018-08-31T04:59:20.727Z,41.13
2018-08-31T05:01:49.980Z,49.57
2018-08-31T05:04:19.352Z,46.70
2018-08-31T05:06:48.574Z,47.80
2018-08-31T05:09:17.817Z,45.17
2018-08-31T05:11:47.084Z,46.97
2018-08-31T05:14:16.310Z,49.87
2018-08-31T05:16:45.575Z,53.90
2018-08-31T05:19:14.838Z,52.08
2018-08-31T05:21:44.079Z,49.50
2018-08-31T05:24:13.321Z,50.73
2018-08-31T05:26:42.572Z,45.70
2018-08-31T05:29:11.931Z,42.70
2018-08-31T05:31:41.171Z,43.27
2018-08-31T05:34:10.615Z,43.73
2018-08-31T05:36:39.842Z,47.60
2018-08-31T05:39:11.013Z,42.47
2018-08-31T05:41:40.331Z,45.65
2018-08-31T05:44:09.698Z,42.13
2018-08-31T05:46:39.168Z,38.67
2018-08-31T05:49:08.436Z,36.40
2018-08-31T05:51:37.706Z,41.53
2018-08-31T05:54:07.267Z,42.33
2018-08-31T05:56:36.541Z,41.68
2018-08-31T05:59:06.406Z,43.70
2018-08-31T06:01:35.652Z,44.23
2018-08-31T06:04:04.878Z,47.10
2018-08-31T06:06:34.190Z,44.90
2018-08-31T06:09:03.791Z,45.60
2018-08-31T06:11:33.058Z,43.10
2018-08-31T06:14:02.311Z,43.43
2018-08-31T06:16:31.548Z,43.63
2018-08-31T06:19:00.866Z,44.40
2018-08-31T06:21:30.131Z,47.13
2018-08-31T06:23:59.370Z,45.73
2018-08-31T06:26:28.611Z,47.43
2018-08-31T06:28:57.864Z,45.30
2018-08-31T06:31:27.092Z,45.67
2018-08-31T06:33:56.577Z,50.47
2018-08-31T06:36:25.766Z,49.90
2018-08-31T06:38:55.015Z,48.43
2018-08-31T06:41:24.279Z,49.50
2018-08-31T06:43:53.518Z,51.90
2018-08-31T06:46:22.794Z,49.70
2018-08-31T06:48:52.207Z,51.57
2018-08-31T06:51:21.481Z,53.13
2018-08-31T06:53:50.704Z,58.23
2018-08-31T06:56:19.956Z,55.90
2018-08-31T06:58:49.195Z,53.70
2018-08-31T07:01:18.779Z,58.87
2018-08-31T07:03:48.148Z,60.10
2018-08-31T07:06:17.312Z,56.50
2018-08-31T07:08:46.559Z,57.47
2018-08-31T07:11:15.828Z,56.13
2018-08-31T07:13:45.279Z,58.47
2018-08-31T07:16:14.571Z,63.17
2018-08-31T07:18:43.845Z,60.08
2018-08-31T07:21:13.115Z,64.37
2018-08-31T07:23:42.414Z,65.50
2018-08-31T07:26:11.711Z,62.90
2018-08-31T07:28:40.935Z,62.33
2018-08-31T07:31:10.219Z,58.00
2018-08-31T07:33:39.543Z,58.07
2018-08-31T07:36:08.794Z,63.80
2018-08-31T07:38:38.024Z,67.60
2018-08-31T07:41:07.320Z,61.13
2018-08-31T07:43:36.567Z,59.18
2018-08-31T07:46:05.894Z,62.90
2018-08-31T07:48:35.140Z,60.37
2018-08-31T07:51:04.467Z,67.33
2018-08-31T07:53:33.750Z,62.78
2018-08-31T07:56:02.988Z,65.77
2018-08-31T07:58:32.227Z,63.07
2018-08-31T08:01:01.465Z,70.83
2018-08-31T08:03:30.733Z,63.67
2018-08-31T08:05:59.966Z,71.60
2018-08-31T08:08:29.221Z,62.70
2018-08-31T08:10:58.474Z,56.47
2018-08-31T08:13:27.741Z,56.27
2018-08-31T08:15:56.986Z,63.53
2018-08-31T08:18:26.219Z,59.23
2018-08-31T08:20:55.446Z,69.17
2018-08-31T08:23:24.993Z,64.10
2018-08-31T08:25:54.261Z,67.73
2018-08-31T08:28:23.535Z,68.60
2018-08-31T08:30:52.759Z,65.53
2018-08-31T08:33:22.027Z,66.13
2018-08-31T08:35:51.257Z,71.27
2018-08-31T08:38:20.495Z,70.10
2018-08-31T08:40:49.748Z,70.85
2018-08-31T08:43:19.013Z,70.20
2018-08-31T08:45:49.753Z,71.70
2018-08-31T08:48:19.018Z,66.40
2018-08-31T08:50:48.210Z,68.57
2018-08-31T08:53:17.468Z,67.37
2018-08-31T08:55:46.714Z,72.57
2018-08-31T08:58:16.013Z,74.50
2018-08-31T09:00:45.207Z,60.93
2018-08-31T09:03:14.460Z,64.80
2018-08-31T09:05:43.716Z,54.13
2018-08-31T09:08:12.955Z,55.37
2018-08-31T09:10:42.190Z,55.13
2018-08-31T09:13:11.447Z,51.57
2018-08-31T09:15:40.684Z,48.17
2018-08-31T09:18:09.921Z,51.50
2018-08-31T09:20:39.150Z,56.20
2018-08-31T09:23:08.407Z,49.90
2018-08-31T09:25:37.863Z,47.53
2018-08-31T09:28:07.101Z,52.70
2018-08-31T09:30:43.418Z,50.25
2018-08-31T09:33:12.679Z,51.37
2018-08-31T09:35:41.921Z,46.57
2018-08-31T09:38:11.182Z,46.83
2018-08-31T09:40:40.386Z,50.13
2018-08-31T09:43:10.008Z,48.07
2018-08-31T09:45:39.244Z,38.90
2018-08-31T09:48:08.494Z,41.33
2018-08-31T09:50:38.006Z,40.37
2018-08-31T09:53:07.244Z,38.25
2018-08-31T09:55:36.495Z,37.37
2018-08-31T09:58:05.738Z,37.13
2018-08-31T10:00:40.259Z,38.50
2018-08-31T10:03:14.667Z,37.83
2018-08-31T10:05:43.979Z,41.53
2018-08-31T10:08:13.213Z,39.43
2018-08-31T10:10:42.540Z,38.07
2018-08-31T10:13:11.873Z,34.47
2018-08-31T10:15:41.775Z,32.63
2018-08-31T10:18:11.075Z,34.73
2018-08-31T10:20:40.298Z,36.07
2018-08-31T10:23:09.594Z,43.10
2018-08-31T10:25:38.846Z,46.27
2018-08-31T10:28:08.095Z,35.63
2018-08-31T10:30:37.336Z,37.37
2018-08-31T10:33:06.815Z,29.73
2018-08-31T10:35:36.048Z,33.43
2018-08-31T10:38:05.291Z,28.67
2018-08-31T10:40:34.524Z,31.43
2018-08-31T10:43:03.837Z,30.47
2018-08-31T10:45:33.088Z,30.77
2018-08-31T10:48:02.357Z,37.43
2018-08-31T10:50:31.587Z,32.87
2018-08-31T10:53:00.842Z,27.63
2018-08-31T10:55:30.105Z,29.83
2018-08-31T10:57:59.359Z,26.33
2018-08-31T11:00:28.707Z,29.12
2018-08-31T11:02:57.966Z,31.07
2018-08-31T11:05:27.207Z,26.17
2018-08-31T11:07:56.470Z,31.00
2018-08-31T11:10:25.715Z,32.70
2018-08-31T11:12:55.002Z,31.43
2018-08-31T11:15:24.303Z,31.20
2018-08-31T11:17:53.614Z,29.90
2018-08-31T11:20:22.858Z,29.87
2018-08-31T11:22:52.111Z,28.50
2018-08-31T11:25:21.361Z,30.53
2018-08-31T11:27:50.672Z,29.70
2018-08-31T11:30:19.905Z,30.97
2018-08-31T11:32:49.147Z,28.73
2018-08-31T11:35:18.464Z,26.70
2018-08-31T11:37:47.739Z,28.27
2018-08-31T11:40:17.251Z,30.87
2018-08-31T11:42:46.503Z,32.38
2018-08-31T11:45:15.860Z,27.40
2018-08-31T11:47:45.106Z,29.77
2018-08-31T11:50:14.334Z,28.27
2018-08-31T11:52:43.860Z,31.40
2018-08-31T11:55:13.137Z,32.63
2018-08-31T11:57:42.343Z,30.37
2018-08-31T12:00:11.578Z,34.37
2018-08-31T12:02:40.821Z,33.17
2018-08-31T12:05:10.092Z,33.97
2018-08-31T12:07:39.336Z,36.87
2018-08-31T12:10:08.567Z,38.60
2018-08-31T12:12:37.819Z,33.37
2018-08-31T12:15:07.098Z,33.63
2018-08-31T12:17:36.352Z,31.37
2018-08-31T12:20:05.853Z,31.47
2018-08-31T12:22:35.087Z,25.47
2018-08-31T12:25:04.371Z,29.77
2018-08-31T12:27:33.607Z,29.43
2018-08-31T12:30:02.945Z,26.83
2018-08-31T12:32:32.307Z,24.20
2018-08-31T12:35:01.563Z,18.57
2018-08-31T12:37:30.783Z,21.40
2018-08-31T12:40:00.026Z,19.30
2018-08-31T12:42:29.264Z,18.47
2018-08-31T12:44:58.512Z,17.07
2018-08-31T12:47:28.000Z,17.27
2018-08-31T12:49:57.256Z,16.50
2018-08-31T12:52:26.500Z,19.97
2018-08-31T12:54:55.735Z,17.87
2018-08-31T12:57:24.978Z,18.47
2018-08-31T12:59:59.123Z,19.23
2018-08-31T13:02:31.067Z,16.00
2018-08-31T13:05:00.883Z,20.73
2018-08-31T13:07:30.110Z,21.50
2018-08-31T13:09:59.351Z,19.27
2018-08-31T13:12:28.592Z,18.33
2018-08-31T13:14:57.833Z,16.03
2018-08-31T13:17:27.066Z,17.60
2018-08-31T13:19:56.462Z,18.93
2018-08-31T13:22:25.673Z,18.45
2018-08-31T13:24:54.923Z,18.20
2018-08-31T13:27:25.399Z,17.97
2018-08-31T13:29:54.632Z,14.97
2018-08-31T13:32:23.883Z,17.67
2018-08-31T13:34:53.128Z,20.02
2018-08-31T13:37:22.364Z,17.00
2018-08-31T13:39:51.600Z,18.17
2018-08-31T13:42:20.828Z,18.63
2018-08-31T13:44:50.110Z,15.90
2018-08-31T13:47:19.355Z,17.20
2018-08-31T13:49:48.615Z,17.73
2018-08-31T13:52:17.887Z,16.70
2018-08-31T13:54:47.135Z,17.50
2018-08-31T13:57:16.373Z,19.03
2018-08-31T13:59:45.661Z,19.60
2018-08-31T14:02:14.902Z,20.40
2018-08-31T14:04:44.164Z,19.90
2018-08-31T14:07:13.415Z,20.43
2018-08-31T14:09:42.659Z,17.40
2018-08-31T14:12:11.907Z,17.77
2018-08-31T14:14:41.143Z,16.97
2018-08-31T14:17:10.386Z,15.80
2018-08-31T14:19:39.651Z,18.60
2018-08-31T14:22:08.894Z,15.28
2018-08-31T14:24:38.135Z,17.37
2018-08-31T14:27:07.404Z,19.80
2018-08-31T14:29:36.736Z,17.20
2018-08-31T14:32:05.920Z,19.43
2018-08-31T14:34:35.163Z,19.90
2018-08-31T14:37:04.704Z,17.27
2018-08-31T14:39:33.931Z,20.47
2018-08-31T14:42:03.175Z,17.90
2018-08-31T14:44:32.427Z,19.83
2018-08-31T14:47:01.692Z,17.83
2018-08-31T14:49:31.012Z,16.30
2018-08-31T14:52:00.171Z,17.97
2018-08-31T14:54:29.419Z,18.50
2018-08-31T14:56:58.716Z,19.13
2018-08-31T14:59:27.959Z,21.37
2018-08-31T15:01:58.435Z,21.30
2018-08-31T15:04:27.679Z,19.27
2018-08-31T15:06:56.965Z,22.30
2018-08-31T15:09:26.221Z,21.48
2018-08-31T15:11:55.479Z,22.27
2018-08-31T15:14:24.719Z,23.27
2018-08-31T15:16:53.979Z,20.70
2018-08-31T15:19:23.275Z,22.77
2018-08-31T15:21:52.562Z,22.13
2018-08-31T15:24:21.812Z,21.53
2018-08-31T15:26:51.071Z,20.33
2018-08-31T15:29:20.308Z,21.83
2018-08-31T15:31:49.626Z,24.00
2018-08-31T15:34:18.902Z,21.73
2018-08-31T15:36:48.366Z,22.67
2018-08-31T15:39:17.538Z,24.27
2018-08-31T15:41:46.797Z,25.43
2018-08-31T15:44:16.303Z,25.87
2018-08-31T15:46:45.547Z,26.27
2018-08-31T15:49:14.795Z,25.47
2018-08-31T15:51:44.057Z,23.67
2018-08-31T15:54:13.302Z,21.27
2018-08-31T15:56:42.545Z,21.33
2018-08-31T15:59:11.784Z,20.33
2018-08-31T16:01:41.063Z,20.83
2018-08-31T16:04:10.380Z,21.30
2018-08-31T16:06:39.638Z,21.43
2018-08-31T16:09:09.550Z,26.47
2018-08-31T16:11:38.783Z,22.57
2018-08-31T16:14:08.110Z,26.77
2018-08-31T16:16:37.363Z,24.83
2018-08-31T16:19:06.710Z,26.53
2018-08-31T16:21:35.855Z,25.13
2018-08-31T16:24:05.097Z,23.83
2018-08-31T16:26:34.333Z,24.37
2018-08-31T16:29:03.621Z,22.60
2018-08-31T16:31:32.835Z,27.27
2018-08-31T16:34:02.079Z,23.67
2018-08-31T16:36:31.355Z,27.30
2018-08-31T16:39:00.675Z,28.23
2018-08-31T16:41:29.855Z,29.47
2018-08-31T16:43:59.125Z,29.27
2018-08-31T16:46:28.371Z,33.10
2018-08-31T16:48:57.881Z,30.40
2018-08-31T16:51:27.123Z,31.43
2018-08-31T16:53:56.372Z,36.17
2018-08-31T16:56:25.614Z,32.23
2018-08-31T16:58:54.844Z,33.93
2018-08-31T17:01:26.957Z,37.27
2018-08-31T17:03:56.219Z,34.63
2018-08-31T17:06:25.443Z,37.57
2018-08-31T17:08:54.724Z,40.33
2018-08-31T17:11:23.948Z,39.80
2018-08-31T17:13:53.192Z,41.97
2018-08-31T17:16:22.441Z,39.57
2018-08-31T17:18:51.701Z,43.38
2018-08-31T17:21:20.959Z,40.47
2018-08-31T17:23:50.202Z,44.90
2018-08-31T17:26:24.909Z,45.30
2018-08-31T17:28:59.383Z,50.40
2018-08-31T17:31:33.753Z,48.07
2018-08-31T17:34:08.099Z,52.03
2018-08-31T17:36:42.443Z,44.23
2018-08-31T17:39:11.682Z,48.90
2018-08-31T17:41:40.923Z,40.43
2018-08-31T17:44:10.174Z,47.07
2018-08-31T17:46:39.672Z,42.65
2018-08-31T17:49:08.925Z,38.03
2018-08-31T17:51:38.170Z,43.57
2018-08-31T17:54:07.426Z,42.40
2018-08-31T17:56:36.662Z,42.80
2018-08-31T17:59:06.091Z,45.97
2018-08-31T18:01:36.558Z,41.63
2018-08-31T18:04:12.650Z,43.93
2018-08-31T18:06:41.815Z,49.80
2018-08-31T18:09:11.115Z,48.23
2018-08-31T18:11:40.322Z,51.07
2018-08-31T18:14:09.604Z,57.53
2018-08-31T18:16:40.092Z,60.17
2018-08-31T18:19:09.226Z,61.87
2018-08-31T18:21:38.471Z,70.37
2018-08-31T18:24:07.702Z,58.77
2018-08-31T18:26:36.931Z,64.73
2018-08-31T18:29:06.229Z,66.40
2018-08-31T18:31:35.457Z,58.97
2018-08-31T18:34:04.767Z,61.37
2018-08-31T18:36:33.983Z,61.77
2018-08-31T18:39:03.430Z,65.15
2018-08-31T18:41:32.658Z,67.70
2018-08-31T18:44:01.907Z,69.00
2018-08-31T18:46:31.227Z,69.63
2018-08-31T18:49:00.460Z,63.90
2018-08-31T18:51:29.707Z,68.33
2018-08-31T18:53:59.007Z,63.47
2018-08-31T18:56:28.291Z,64.03
2018-08-31T18:58:57.541Z,69.67
2018-08-31T19:01:26.783Z,68.43
2018-08-31T19:03:56.018Z,60.47
2018-08-31T19:06:28.149Z,71.60
2018-08-31T19:08:57.391Z,68.17
2018-08-31T19:11:26.618Z,65.87
2018-08-31T19:13:55.863Z,71.07
2018-08-31T19:16:25.098Z,76.20
2018-08-31T19:18:54.354Z,62.40
2018-08-31T19:21:23.599Z,71.67
2018-08-31T19:23:52.846Z,78.97
2018-08-31T19:26:22.095Z,75.30
2018-08-31T19:28:51.327Z,74.37
2018-08-31T19:31:20.675Z,71.47
2018-08-31T19:33:49.833Z,69.17
2018-08-31T19:36:19.117Z,78.78
2018-08-31T19:38:48.380Z,68.63
2018-08-31T19:41:17.646Z,77.43
2018-08-31T19:43:46.884Z,80.70
2018-08-31T19:46:16.138Z,81.00
2018-08-31T19:48:45.367Z,90.17
2018-08-31T19:51:14.619Z,90.90
2018-08-31T19:53:43.920Z,74.23
2018-08-31T19:56:13.123Z,69.10
2018-08-31T19:58:42.375Z,59.57
2018-08-31T20:01:11.631Z,50.90
2018-08-31T20:03:40.883Z,51.40
2018-08-31T20:06:10.123Z,45.60
2018-08-31T20:08:39.362Z,42.73
2018-08-31T20:11:08.630Z,32.53
2018-08-31T20:13:37.910Z,37.00
2018-08-31T20:16:07.180Z,34.27
2018-08-31T20:18:36.427Z,39.10
2018-08-31T20:21:05.704Z,35.70
2018-08-31T20:23:34.956Z,36.77
2018-08-31T20:26:04.214Z,38.87
2018-08-31T20:28:33.482Z,37.97
2018-08-31T20:31:02.823Z,38.70
2018-08-31T20:33:31.978Z,38.13
2018-08-31T20:36:01.224Z,39.83
2018-08-31T20:38:30.489Z,40.83
2018-08-31T20:40:59.884Z,39.53
2018-08-31T20:43:29.148Z,40.57
2018-08-31T20:45:58.375Z,45.37
2018-08-31T20:48:27.632Z,40.40
2018-08-31T20:50:56.895Z,43.87
2018-08-31T20:53:26.119Z,42.77
2018-08-31T20:55:55.543Z,42.57
2018-08-31T20:58:24.772Z,44.37
2018-08-31T21:00:54.017Z,53.80
2018-08-31T21:03:23.263Z,46.17
2018-08-31T21:05:52.525Z,50.73
2018-08-31T21:08:22.033Z,48.60
2018-08-31T21:10:51.291Z,55.03
2018-08-31T21:13:20.520Z,48.57
2018-08-31T21:15:49.745Z,56.13
2018-08-31T21:18:19.010Z,51.97
2018-08-31T21:20:48.243Z,60.23
2018-08-31T21:23:17.531Z,53.23
2018-08-31T21:25:46.759Z,70.27
2018-08-31T21:28:16.024Z,64.57
2018-08-31T21:30:45.275Z,64.23
2018-08-31T21:33:14.522Z,68.93
2018-08-31T21:35:43.755Z,64.17
2018-08-31T21:38:12.997Z,73.73
2018-08-31T21:40:42.251Z,64.30
2018-08-31T21:43:11.479Z,70.93
2018-08-31T21:45:40.731Z,66.70
2018-08-31T21:48:09.982Z,74.37
2018-08-31T21:50:39.237Z,62.23
2018-08-31T21:53:08.511Z,71.63
2018-08-31T21:55:37.759Z,70.23
2018-08-31T21:58:07.012Z,66.20
2018-08-31T22:00:41.310Z,68.40
2018-08-31T22:03:11.615Z,68.23
2018-08-31T22:05:41.176Z,75.70
2018-08-31T22:08:10.413Z,66.60
2018-08-31T22:10:39.643Z,62.50
2018-08-31T22:13:08.879Z,64.47
2018-08-31T22:15:38.115Z,57.78
2018-08-31T22:18:07.504Z,66.13
2018-08-31T22:20:36.758Z,68.57
2018-08-31T22:23:06.042Z,67.00
2018-08-31T22:25:35.304Z,67.50
2018-08-31T22:28:04.531Z,69.80
2018-08-31T22:30:33.778Z,68.30
2018-08-31T22:33:03.018Z,68.97
2018-08-31T22:35:32.274Z,67.47
2018-08-31T22:38:01.517Z,63.07
2018-08-31T22:40:30.755Z,63.47
2018-08-31T22:42:59.999Z,67.90
2018-08-31T22:45:29.240Z,68.10
2018-08-31T22:47:58.478Z,74.10
2018-08-31T22:50:27.731Z,71.33
2018-08-31T22:52:56.975Z,82.40
2018-08-31T22:55:26.211Z,71.17
2018-08-31T22:57:55.498Z,72.47
2018-08-31T23:00:26.666Z,73.00
2018-08-31T23:02:56.671Z,76.07
2018-08-31T23:05:25.938Z,76.07
2018-08-31T23:08:01.732Z,74.85
2018-08-31T23:10:32.371Z,70.52
2018-08-31T23:13:02.108Z,69.23
2018-08-31T23:15:31.364Z,75.50
2018-08-31T23:18:00.594Z,70.37
2018-08-31T23:20:29.860Z,75.00
2018-08-31T23:23:05.061Z,76.57
2018-08-31T23:30:32.728Z,74.03
2018-08-31T23:33:01.983Z,84.53
2018-08-31T23:35:31.233Z,82.90
2018-08-31T23:38:00.463Z,82.83
2018-08-31T23:40:29.711Z,78.20
2018-08-31T23:42:59.007Z,81.73
2018-08-31T23:45:28.235Z,75.00
2018-08-31T23:47:57.512Z,87.73
2018-08-31T23:50:26.775Z,77.33
2018-08-31T23:52:56.394Z,84.27
2018-08-31T23:55:25.655Z,75.40
2018-08-31T23:57:54.951Z,74.00
